createdAt,value
2023-01-22T00:01:04.182Z,18.60
2023-01-22T00:03:31.408Z,18.60
2023-01-22T00:05:58.558Z,18.60
2023-01-22T00:08:25.734Z,18.60
2023-01-22T00:10:53.316Z,18.60
2023-01-22T00:13:21.804Z,18.60
2023-01-22T00:15:49.072Z,18.60
2023-01-22T00:18:16.883Z,18.60
2023-01-22T00:20:50.908Z,18.60
2023-01-22T00:23:18.466Z,18.60
2023-01-22T00:25:45.890Z,18.60
2023-01-22T00:28:13.495Z,18.60
2023-01-22T00:30:40.691Z,18.60
2023-01-22T00:33:07.973Z,18.60
2023-01-22T00:35:35.801Z,18.60
2023-01-22T00:38:03.893Z,18.60
2023-01-22T00:40:31.071Z,18.60
2023-01-22T00:42:58.233Z,18.50
2023-01-22T00:45:25.401Z,18.60
2023-01-22T00:47:53.610Z,18.60
2023-01-22T00:50:21.244Z,18.60
2023-01-22T00:52:48.439Z,18.60
2023-01-22T00:55:15.660Z,18.60
2023-01-22T00:57:43.542Z,18.60
2023-01-22T01:00:11.644Z,18.50
2023-01-22T01:02:59.037Z,18.50
2023-01-22T01:05:26.422Z,18.50
2023-01-22T01:07:53.781Z,18.50
2023-01-22T01:10:21.025Z,18.50
2023-01-22T01:12:48.161Z,18.60
2023-01-22T01:15:15.308Z,18.50
2023-01-22T01:17:42.765Z,18.50
2023-01-22T01:20:10.320Z,18.50
2023-01-22T01:22:37.476Z,18.50
2023-01-22T01:25:05.110Z,18.50
2023-01-22T01:27:32.667Z,18.50
2023-01-22T01:29:59.824Z,18.50
2023-01-22T01:32:27.009Z,18.50
2023-01-22T01:34:54.261Z,18.50
2023-01-22T01:37:21.438Z,18.50
2023-01-22T01:39:52.427Z,18.50
2023-01-22T01:42:24.468Z,18.50
2023-01-22T01:45:10.361Z,18.50
2023-01-22T01:47:37.614Z,18.50
2023-01-22T01:50:05.141Z,18.40
2023-01-22T01:52:32.408Z,18.40
2023-01-22T01:54:59.561Z,18.50
2023-01-22T01:57:28.279Z,18.40
2023-01-22T01:59:57.906Z,18.40
2023-01-22T02:02:25.140Z,18.40
2023-01-22T02:04:54.150Z,18.40
2023-01-22T02:07:21.421Z,18.40
2023-01-22T02:09:48.584Z,18.40
2023-01-22T02:12:15.765Z,18.40
2023-01-22T02:14:44.552Z,18.40
2023-01-22T02:17:14.036Z,18.40
2023-01-22T02:19:42.129Z,18.40
2023-01-22T02:22:22.825Z,18.40
2023-01-22T02:24:50.355Z,18.40
2023-01-22T02:27:18.473Z,18.40
2023-01-22T02:29:47.021Z,18.40
2023-01-22T02:32:14.593Z,18.40
2023-01-22T02:34:41.833Z,18.40
2023-01-22T02:37:10.256Z,18.30
2023-01-22T02:39:37.342Z,18.30
2023-01-22T02:42:05.879Z,18.30
2023-01-22T02:44:33.272Z,18.40
2023-01-22T02:47:00.556Z,18.30
2023-01-22T02:49:28.170Z,18.30
2023-01-22T02:51:55.311Z,18.30
2023-01-22T02:54:23.651Z,18.30
2023-01-22T02:56:51.030Z,18.30
2023-01-22T02:59:18.350Z,18.30
2023-01-22T03:01:45.583Z,18.30
2023-01-22T03:04:12.752Z,18.30
2023-01-22T03:06:42.628Z,18.30
2023-01-22T03:09:10.764Z,18.30
2023-01-22T03:11:39.659Z,18.30
2023-01-22T03:14:29.629Z,18.30
2023-01-22T03:17:15.553Z,18.30
2023-01-22T03:20:01.489Z,18.30
2023-01-22T03:22:28.891Z,18.30
2023-01-22T03:24:58.789Z,18.20
2023-01-22T03:27:27.110Z,18.30
2023-01-22T03:29:55.308Z,18.30
2023-01-22T03:32:23.511Z,18.20
2023-01-22T03:34:51.290Z,18.30
2023-01-22T03:37:19.055Z,18.20
2023-01-22T03:39:50.165Z,18.20
2023-01-22T03:42:25.309Z,18.20
2023-01-22T03:44:52.471Z,18.20
2023-01-22T03:47:19.872Z,18.20
2023-01-22T03:49:47.025Z,18.20
2023-01-22T03:52:14.184Z,18.20
2023-01-22T03:54:41.300Z,18.20
2023-01-22T03:57:10.560Z,18.20
2023-01-22T03:59:39.865Z,18.20
2023-01-22T04:02:07.560Z,18.20
2023-01-22T04:04:44.727Z,18.20
2023-01-22T04:07:12.704Z,18.20
2023-01-22T04:09:40.304Z,18.10
2023-01-22T04:12:07.645Z,18.10
2023-01-22T04:14:34.942Z,18.10
2023-01-22T04:17:03.556Z,18.10
2023-01-22T04:19:47.809Z,18.10
2023-01-22T04:22:33.407Z,18.10
2023-01-22T04:25:01.626Z,18.10
2023-01-22T04:27:28.877Z,18.10
2023-01-22T04:29:56.469Z,18.10
2023-01-22T04:32:24.767Z,18.10
2023-01-22T04:35:10.206Z,18.10
2023-01-22T04:37:49.106Z,18.10
2023-01-22T04:40:16.989Z,18.10
2023-01-22T04:42:46.288Z,18.10
2023-01-22T04:45:13.687Z,18.10
2023-01-22T04:47:42.976Z,18.10
2023-01-22T04:50:16.369Z,18.10
2023-01-22T04:52:43.844Z,18.00
2023-01-22T04:55:11.392Z,18.00
2023-01-22T04:57:47.252Z,18.00
2023-01-22T05:00:15.021Z,18.10
2023-01-22T05:02:42.437Z,18.00
2023-01-22T05:05:09.897Z,18.10
2023-01-22T05:07:37.165Z,18.00
2023-01-22T05:10:04.489Z,18.10
2023-01-22T05:12:31.588Z,18.00
2023-01-22T05:15:00.526Z,18.00
2023-01-22T05:17:27.718Z,18.00
2023-01-22T05:19:54.851Z,18.00
2023-01-22T05:22:22.198Z,18.00
2023-01-22T05:24:49.529Z,18.00
2023-01-22T05:27:16.656Z,18.00
2023-01-22T05:29:53.162Z,18.00
2023-01-22T05:32:56.241Z,18.00
2023-01-22T05:35:24.132Z,18.00
2023-01-22T05:37:51.414Z,18.00
2023-01-22T05:40:19.830Z,18.00
2023-01-22T05:42:47.155Z,18.00
2023-01-22T05:45:14.764Z,18.00
2023-01-22T05:48:06.697Z,18.00
2023-01-22T05:50:41.712Z,18.00
2023-01-22T05:53:11.373Z,18.00
2023-01-22T05:55:38.551Z,18.00
2023-01-22T05:58:06.456Z,18.00
2023-01-22T06:00:34.663Z,18.00
2023-01-22T06:03:04.530Z,18.00
2023-01-22T06:05:42.288Z,18.00
2023-01-22T06:08:10.368Z,18.00
2023-01-22T06:10:45.099Z,18.00
2023-01-22T06:13:13.438Z,18.00
2023-01-22T06:15:42.933Z,18.00
2023-01-22T06:18:24.093Z,18.00
2023-01-22T06:20:51.539Z,18.00
2023-01-22T06:23:19.543Z,18.00
2023-01-22T06:25:52.019Z,18.00
2023-01-22T06:28:19.370Z,17.90
2023-01-22T06:30:46.462Z,18.00
2023-01-22T06:33:13.989Z,18.00
2023-01-22T06:35:41.214Z,18.00
2023-01-22T06:38:09.362Z,17.90
2023-01-22T06:40:36.829Z,18.00
2023-01-22T06:43:05.605Z,18.00
2023-01-22T06:45:33.048Z,18.00
2023-01-22T06:48:05.172Z,17.90
2023-01-22T06:50:32.307Z,17.90
2023-01-22T06:53:00.325Z,17.90
2023-01-22T06:55:27.587Z,17.90
2023-01-22T06:57:55.253Z,17.90
2023-01-22T07:00:22.680Z,17.90
2023-01-22T07:02:49.961Z,17.90
2023-01-22T07:05:17.125Z,17.90
2023-01-22T07:07:44.267Z,17.90
2023-01-22T07:10:11.414Z,17.90
2023-01-22T07:12:38.546Z,17.90
2023-01-22T07:15:07.798Z,17.90
2023-01-22T07:17:35.034Z,17.90
2023-01-22T07:20:02.152Z,17.90
2023-01-22T07:22:30.273Z,17.90
2023-01-22T07:24:57.396Z,18.00
2023-01-22T07:27:24.518Z,17.90
2023-01-22T07:29:51.634Z,17.90
2023-01-22T07:32:18.807Z,17.90
2023-01-22T07:34:45.968Z,18.00
2023-01-22T07:37:13.211Z,18.00
2023-01-22T07:39:40.322Z,18.00
2023-01-22T07:42:07.442Z,18.00
2023-01-22T07:44:35.955Z,18.00
2023-01-22T07:47:03.097Z,18.00
2023-01-22T07:49:30.263Z,18.00
2023-01-22T07:51:57.369Z,18.00
2023-01-22T07:54:24.501Z,18.00
2023-01-22T07:56:51.637Z,18.00
2023-01-22T07:59:18.825Z,18.00
2023-01-22T08:01:46.002Z,18.00
2023-01-22T08:04:13.151Z,18.00
2023-01-22T08:06:40.290Z,18.00
2023-01-22T08:09:07.445Z,18.00
2023-01-22T08:11:34.615Z,18.00
2023-01-22T08:14:01.803Z,18.10
2023-01-22T08:16:29.218Z,18.00
2023-01-22T08:18:56.378Z,18.00
2023-01-22T08:21:23.549Z,18.10
2023-01-22T08:23:50.834Z,18.10
2023-01-22T08:26:17.991Z,18.10
2023-01-22T08:28:45.178Z,18.10
2023-01-22T08:31:26.262Z,18.10
2023-01-22T08:33:54.795Z,18.10
2023-01-22T08:36:22.073Z,18.10
2023-01-22T08:38:49.227Z,18.10
2023-01-22T08:41:16.346Z,18.10
2023-01-22T08:43:43.463Z,18.10
2023-01-22T08:46:10.631Z,18.10
2023-01-22T08:48:37.852Z,18.10
2023-01-22T08:51:05.271Z,18.10
2023-01-22T08:53:32.427Z,18.10
2023-01-22T08:55:59.748Z,18.10
2023-01-22T08:58:27.963Z,18.10
2023-01-22T09:00:55.583Z,18.10
2023-01-22T09:03:22.810Z,18.10
2023-01-22T09:05:51.034Z,18.10
2023-01-22T09:08:18.268Z,18.10
2023-01-22T09:10:45.419Z,18.10
2023-01-22T09:13:12.595Z,18.10
2023-01-22T09:15:40.319Z,18.10
2023-01-22T09:18:07.510Z,18.10
2023-01-22T09:20:34.670Z,18.20
2023-01-22T09:23:01.800Z,18.20
2023-01-22T09:25:29.419Z,18.10
2023-01-22T09:27:57.489Z,18.20
2023-01-22T09:30:26.423Z,18.20
2023-01-22T09:32:53.645Z,18.10
2023-01-22T09:35:20.917Z,18.10
2023-01-22T09:37:48.036Z,18.10
2023-01-22T09:40:31.419Z,18.10
2023-01-22T09:43:05.915Z,18.10
2023-01-22T09:45:35.078Z,18.10
2023-01-22T09:48:04.729Z,18.10
2023-01-22T09:50:33.255Z,18.10
2023-01-22T09:53:02.999Z,18.10
2023-01-22T09:55:31.281Z,18.10
2023-01-22T09:58:01.704Z,18.20
2023-01-22T10:00:55.124Z,18.20
2023-01-22T10:03:24.831Z,18.20
2023-01-22T10:05:55.462Z,18.20
2023-01-22T10:08:27.717Z,18.20
2023-01-22T10:10:55.006Z,18.30
2023-01-22T10:13:23.664Z,18.30
2023-01-22T10:15:52.314Z,18.30
2023-01-22T10:18:34.907Z,18.30
2023-01-22T10:21:05.087Z,18.40
2023-01-22T10:23:33.973Z,18.40
2023-01-22T10:26:18.026Z,18.40
2023-01-22T10:28:46.000Z,18.40
2023-01-22T10:31:25.215Z,18.50
2023-01-22T10:33:59.330Z,18.50
2023-01-22T10:36:26.871Z,18.50
2023-01-22T10:39:23.352Z,18.50
2023-01-22T10:42:00.206Z,18.60
2023-01-22T10:44:27.520Z,18.60
2023-01-22T10:46:55.538Z,18.60
2023-01-22T10:49:26.675Z,18.60
2023-01-22T10:51:54.993Z,18.60
2023-01-22T10:54:24.993Z,18.70
2023-01-22T10:56:53.146Z,18.70
2023-01-22T10:59:26.509Z,18.70
2023-01-22T11:02:01.259Z,18.70
2023-01-22T11:04:33.150Z,18.70
2023-01-22T11:07:07.134Z,18.80
2023-01-22T11:09:39.563Z,18.80
2023-01-22T11:12:14.531Z,18.80
2023-01-22T11:14:42.272Z,18.80
2023-01-22T11:17:17.915Z,18.80
2023-01-22T11:19:47.696Z,18.80
2023-01-22T11:22:37.939Z,18.80
2023-01-22T11:25:09.137Z,18.80
2023-01-22T11:27:42.159Z,18.80
2023-01-22T11:30:09.455Z,18.80
2023-01-22T11:32:56.876Z,18.90
2023-01-22T11:35:45.289Z,18.90
2023-01-22T11:38:31.360Z,18.90
2023-01-22T11:41:20.869Z,18.90
2023-01-22T11:43:48.090Z,18.90
2023-01-22T11:46:33.364Z,18.90
2023-01-22T11:49:08.176Z,18.90
2023-01-22T11:51:58.537Z,19.00
2023-01-22T11:54:40.336Z,19.00
2023-01-22T11:57:07.434Z,19.00
2023-01-22T11:59:42.198Z,19.00
2023-01-22T12:02:12.231Z,19.00
2023-01-22T12:04:42.209Z,19.00
2023-01-22T12:07:12.671Z,19.00
2023-01-22T12:09:42.849Z,19.00
2023-01-22T12:12:10.031Z,19.00
2023-01-22T12:14:42.806Z,19.00
2023-01-22T12:17:14.680Z,19.00
2023-01-22T12:19:47.874Z,19.10
2023-01-22T12:22:20.791Z,19.10
2023-01-22T12:24:50.123Z,19.10
2023-01-22T12:27:34.822Z,19.10
2023-01-22T12:30:12.615Z,19.10
2023-01-22T12:32:40.910Z,19.10
2023-01-22T12:35:13.241Z,19.10
2023-01-22T12:37:45.448Z,19.10
2023-01-22T12:40:21.686Z,19.10
2023-01-22T12:42:54.874Z,19.10
2023-01-22T12:45:24.852Z,19.10
2023-01-22T12:47:58.186Z,19.10
2023-01-22T12:50:26.431Z,19.10
2023-01-22T12:53:19.571Z,19.10
2023-01-22T12:55:57.042Z,19.20
2023-01-22T12:58:25.686Z,19.10
2023-01-22T13:01:13.813Z,19.10
2023-01-22T13:03:41.541Z,19.10
2023-01-22T13:06:29.282Z,19.20
2023-01-22T13:08:56.458Z,19.20
2023-01-22T13:11:28.374Z,19.10
2023-01-22T13:14:18.925Z,19.20
2023-01-22T13:16:52.685Z,19.20
2023-01-22T13:19:21.549Z,19.20
2023-01-22T13:21:49.401Z,19.10
2023-01-22T13:24:18.256Z,19.10
2023-01-22T13:26:57.185Z,19.10
2023-01-22T13:29:27.297Z,19.20
2023-01-22T13:31:59.009Z,19.20
2023-01-22T13:34:26.786Z,19.10
2023-01-22T13:36:53.907Z,19.20
2023-01-22T13:39:24.598Z,19.20
2023-01-22T13:41:53.173Z,19.20
2023-01-22T13:44:23.539Z,19.10
2023-01-22T13:46:51.322Z,19.20
2023-01-22T13:49:28.794Z,19.10
2023-01-22T13:51:57.635Z,19.20
2023-01-22T13:54:28.905Z,19.10
2023-01-22T13:56:56.127Z,19.20
2023-01-22T13:59:24.454Z,19.20
2023-01-22T14:01:51.948Z,19.20
2023-01-22T14:04:27.932Z,19.10
2023-01-22T14:06:55.261Z,19.10
2023-01-22T14:09:48.551Z,19.10
2023-01-22T14:12:17.690Z,19.10
2023-01-22T14:14:45.433Z,19.10
2023-01-22T14:17:24.952Z,19.10
2023-01-22T14:19:52.239Z,19.10
2023-01-22T14:22:19.453Z,19.10
2023-01-22T14:24:47.371Z,19.10
2023-01-22T14:27:14.579Z,19.10
2023-01-22T14:29:41.691Z,19.10
2023-01-22T14:32:08.847Z,19.10
2023-01-22T14:34:35.981Z,19.10
2023-01-22T14:37:03.200Z,19.00
2023-01-22T14:39:34.030Z,19.10
2023-01-22T14:42:01.574Z,19.00
2023-01-22T14:44:28.876Z,19.10
2023-01-22T14:46:56.125Z,19.00
2023-01-22T14:49:23.269Z,19.10
2023-01-22T14:51:52.105Z,19.10
2023-01-22T14:54:19.687Z,19.10
2023-01-22T14:56:46.855Z,19.10
2023-01-22T14:59:14.081Z,19.00
2023-01-22T15:01:41.252Z,19.00
2023-01-22T15:04:08.301Z,19.00
2023-01-22T15:06:35.498Z,19.00
2023-01-22T15:09:03.306Z,19.00
2023-01-22T15:11:30.386Z,19.00
2023-01-22T15:13:57.599Z,19.00
2023-01-22T15:16:24.793Z,19.00
2023-01-22T15:18:55.598Z,19.00
2023-01-22T15:21:22.999Z,19.00
2023-01-22T15:23:50.651Z,19.00
2023-01-22T15:26:36.705Z,19.00
2023-01-22T15:29:04.883Z,19.00
2023-01-22T15:31:32.606Z,19.00
2023-01-22T15:34:02.022Z,19.00
2023-01-22T15:36:29.504Z,19.00
2023-01-22T15:38:56.850Z,19.00
2023-01-22T15:41:28.307Z,19.00
2023-01-22T15:44:00.242Z,18.90
2023-01-22T15:46:28.267Z,18.90
2023-01-22T15:48:56.892Z,18.90
2023-01-22T15:51:24.094Z,19.00
2023-01-22T15:53:52.136Z,18.90
2023-01-22T15:56:19.971Z,18.90
2023-01-22T15:58:47.297Z,18.90
2023-01-22T16:01:14.596Z,18.90
2023-01-22T16:03:41.762Z,18.90
2023-01-22T16:06:08.933Z,18.90
2023-01-22T16:08:36.094Z,18.90
2023-01-22T16:11:03.559Z,18.90
2023-01-22T16:13:30.659Z,18.90
2023-01-22T16:16:02.326Z,18.90
2023-01-22T16:18:31.464Z,18.90
2023-01-22T16:21:04.958Z,18.90
2023-01-22T16:23:32.620Z,18.90
2023-01-22T16:26:01.168Z,18.80
2023-01-22T16:28:28.359Z,18.80
2023-01-22T16:30:55.518Z,18.80
2023-01-22T16:33:28.229Z,18.90
2023-01-22T16:35:59.130Z,18.80
2023-01-22T16:38:26.284Z,18.80
2023-01-22T16:40:53.417Z,18.80
2023-01-22T16:43:20.578Z,18.80
2023-01-22T16:45:47.819Z,18.80
2023-01-22T16:48:15.004Z,18.80
2023-01-22T16:50:42.146Z,18.80
2023-01-22T16:53:09.272Z,18.80
2023-01-22T16:55:36.419Z,18.80
2023-01-22T16:58:03.724Z,18.80
2023-01-22T17:00:31.016Z,18.80
2023-01-22T17:02:59.976Z,18.80
2023-01-22T17:05:27.097Z,18.80
2023-01-22T17:07:54.253Z,18.70
2023-01-22T17:10:21.702Z,18.80
2023-01-22T17:12:48.995Z,18.80
2023-01-22T17:15:16.333Z,18.80
2023-01-22T17:17:43.772Z,18.80
2023-01-22T17:20:12.052Z,18.80
2023-01-22T17:22:39.498Z,18.70
2023-01-22T17:25:07.477Z,18.70
2023-01-22T17:27:36.213Z,18.70
2023-01-22T17:30:05.682Z,18.70
2023-01-22T17:32:33.106Z,18.70
2023-01-22T17:35:00.482Z,18.70
2023-01-22T17:37:27.838Z,18.80
2023-01-22T17:39:55.122Z,18.80
2023-01-22T17:42:22.471Z,18.70
2023-01-22T17:44:49.906Z,18.80
2023-01-22T17:47:17.322Z,18.80
2023-01-22T17:49:45.858Z,18.80
2023-01-22T17:52:14.567Z,18.80
2023-01-22T17:54:42.037Z,18.70
2023-01-22T17:57:10.807Z,18.70
2023-01-22T17:59:38.927Z,18.70
2023-01-22T18:02:06.344Z,18.80
2023-01-22T18:04:34.891Z,18.80
2023-01-22T18:07:03.492Z,18.80
2023-01-22T18:09:31.130Z,18.70
2023-01-22T18:11:59.434Z,18.80
2023-01-22T18:14:30.924Z,18.80
2023-01-22T18:16:58.227Z,18.80
2023-01-22T18:19:25.532Z,18.80
2023-01-22T18:21:53.039Z,18.80
2023-01-22T18:24:23.094Z,18.80
2023-01-22T18:26:50.747Z,18.80
2023-01-22T18:29:17.996Z,18.80
2023-01-22T18:31:45.298Z,18.80
2023-01-22T18:34:14.852Z,18.80
2023-01-22T18:36:42.639Z,18.90
2023-01-22T18:39:19.828Z,18.80
2023-01-22T18:41:47.443Z,18.90
2023-01-22T18:44:16.248Z,18.90
2023-01-22T18:46:47.514Z,18.90
2023-01-22T18:49:18.498Z,18.90
2023-01-22T18:51:46.266Z,18.90
2023-01-22T18:54:13.686Z,18.90
2023-01-22T18:56:41.691Z,18.90
2023-01-22T18:59:09.143Z,18.90
2023-01-22T19:01:38.263Z,19.00
2023-01-22T19:04:08.348Z,19.00
2023-01-22T19:06:38.171Z,19.00
2023-01-22T19:09:12.245Z,19.00
2023-01-22T19:11:42.209Z,19.00
2023-01-22T19:14:12.712Z,19.00
2023-01-22T19:16:40.076Z,19.00
2023-01-22T19:19:11.402Z,19.10
2023-01-22T19:21:41.157Z,19.10
2023-01-22T19:24:08.887Z,19.00
2023-01-22T19:26:37.392Z,19.10
2023-01-22T19:29:11.607Z,19.10
2023-01-22T19:31:42.045Z,19.00
2023-01-22T19:34:12.107Z,19.10
2023-01-22T19:36:40.229Z,19.00
2023-01-22T19:39:11.640Z,19.00
2023-01-22T19:41:40.171Z,19.10
2023-01-22T19:44:09.189Z,19.10
2023-01-22T19:46:40.601Z,19.10
2023-01-22T19:49:08.934Z,19.10
2023-01-22T19:51:36.421Z,19.10
2023-01-22T19:54:05.437Z,19.10
2023-01-22T19:56:35.368Z,19.10
2023-01-22T19:59:08.420Z,19.10
2023-01-22T20:01:36.910Z,19.10
2023-01-22T20:04:08.895Z,19.10
2023-01-22T20:06:36.314Z,19.10
2023-01-22T20:09:04.206Z,19.10
2023-01-22T20:11:31.673Z,19.10
2023-01-22T20:13:59.317Z,19.10
2023-01-22T20:16:28.668Z,19.10
2023-01-22T20:18:57.954Z,19.10
2023-01-22T20:21:27.017Z,19.20
2023-01-22T20:23:54.770Z,19.10
2023-01-22T20:26:22.548Z,19.20
2023-01-22T20:28:50.560Z,19.20
2023-01-22T20:31:23.150Z,19.20
2023-01-22T20:33:52.705Z,19.20
2023-01-22T20:36:21.804Z,19.20
2023-01-22T20:38:52.531Z,19.20
2023-01-22T20:41:21.345Z,19.20
2023-01-22T20:43:48.819Z,19.20
2023-01-22T20:46:22.097Z,19.20
2023-01-22T20:48:50.290Z,19.20
2023-01-22T20:51:26.529Z,19.20
2023-01-22T20:53:55.517Z,19.20
2023-01-22T20:56:28.398Z,19.20
2023-01-22T20:59:24.159Z,19.20
2023-01-22T21:01:51.573Z,19.20
2023-01-22T21:04:19.097Z,19.20
2023-01-22T21:06:47.457Z,19.20
2023-01-22T21:09:14.771Z,19.20
2023-01-22T21:11:42.798Z,19.20
2023-01-22T21:14:16.435Z,19.20
2023-01-22T21:16:44.816Z,19.20
2023-01-22T21:19:21.784Z,19.20
2023-01-22T21:21:50.283Z,19.20
2023-01-22T21:24:18.360Z,19.20
2023-01-22T21:26:45.857Z,19.20
2023-01-22T21:29:16.128Z,19.20
2023-01-22T21:31:44.470Z,19.20
2023-01-22T21:34:12.402Z,19.20
2023-01-22T21:36:42.676Z,19.20
2023-01-22T21:39:14.620Z,19.20
2023-01-22T21:41:43.125Z,19.20
2023-01-22T21:44:33.986Z,19.20
2023-01-22T21:47:02.372Z,19.20
2023-01-22T21:49:30.744Z,19.20
2023-01-22T21:52:01.808Z,19.20
2023-01-22T21:54:41.223Z,19.20
2023-01-22T21:57:13.531Z,19.20
2023-01-22T21:59:59.150Z,19.20
2023-01-22T22:02:27.192Z,19.20
2023-01-22T22:04:54.636Z,19.20
2023-01-22T22:07:21.967Z,19.20
2023-01-22T22:09:49.317Z,19.20
2023-01-22T22:12:16.682Z,19.20
2023-01-22T22:14:44.059Z,19.20
2023-01-22T22:17:11.406Z,19.20
2023-01-22T22:19:38.785Z,19.20
2023-01-22T22:22:06.104Z,19.20
2023-01-22T22:24:33.473Z,19.20
2023-01-22T22:27:00.792Z,19.20
2023-01-22T22:29:28.087Z,19.20
2023-01-22T22:31:55.777Z,19.20
2023-01-22T22:34:23.085Z,19.10
2023-01-22T22:36:50.397Z,19.20
2023-01-22T22:39:17.814Z,19.10
2023-01-22T22:41:45.236Z,19.10
2023-01-22T22:44:14.952Z,19.10
2023-01-22T22:46:42.309Z,19.10
2023-01-22T22:49:12.733Z,19.10
2023-01-22T22:51:41.917Z,19.10
2023-01-22T22:54:17.349Z,19.10
2023-01-22T22:56:46.247Z,19.10
2023-01-22T22:59:14.791Z,19.10
2023-01-22T23:01:42.244Z,19.10
2023-01-22T23:04:10.280Z,19.10
2023-01-22T23:06:37.961Z,19.00
2023-01-22T23:09:17.660Z,19.00
2023-01-22T23:11:46.009Z,19.00
2023-01-22T23:14:13.457Z,19.00
2023-01-22T23:16:42.653Z,19.00
2023-01-22T23:19:22.040Z,19.00
2023-01-22T23:21:51.921Z,19.00
2023-01-22T23:24:19.294Z,19.00
2023-01-22T23:26:47.204Z,19.00
2023-01-22T23:29:17.737Z,19.00
2023-01-22T23:31:45.504Z,19.00
2023-01-22T23:34:19.325Z,19.00
2023-01-22T23:36:48.063Z,19.00
2023-01-22T23:39:19.364Z,18.90
2023-01-22T23:41:46.755Z,19.00
2023-01-22T23:44:14.208Z,18.90
2023-01-22T23:46:41.957Z,18.90
2023-01-22T23:49:10.144Z,18.90
2023-01-22T23:51:41.210Z,18.90
2023-01-22T23:54:09.020Z,18.90
2023-01-22T23:56:36.571Z,18.90
2023-01-22T23:59:04.413Z,18.90
